| time (UTC) | temp C | wind direction | speed KPH | gust KPH | rain 1hr cm | rain 24hr cm | rain mn cm | humidity % | barometer mb |
| 20260505153033 | 13 | 195 | 8.0 | 19.3 | 0.00 | 0.00 | 0.00 | 52 | 1009.1 |
| 20260505152015 | 13 | 198 | 8.0 | 16.1 | 0.00 | 0.00 | 0.00 | 51 | 1009.0 |
| 20260505151027 | 13 | 359 | 3.2 | 12.9 | 0.00 | 0.00 | 0.00 | 51 | 1009.0 |
| 20260505125019 | 13 | 177 | 0.0 | 1.6 | 0.00 | 0.00 | 0.00 | 40 | 1007.8 |
| 20260505124029 | 13 | 206 | 0.0 | 0.0 | 0.00 | 0.00 | 0.00 | 39 | 1007.8 |
| 20260505123020 | 13 | 187 | 0.0 | 0.0 | 0.00 | 0.00 | 0.00 | 38 | 1007.7 |
| 20260505122031 | 13 | 201 | 0.0 | 0.0 | 0.00 | 0.00 | 0.00 | 37 | 1007.7 |
| 20260505121014 | 13 | 202 | 0.0 | 0.0 | 0.00 | 0.00 | 0.00 | 36 | 1007.7 |
| 20260505120026 | 13 | 181 | 0.0 | 3.2 | 0.00 | 0.00 | 0.00 | 39 | 1007.6 |
| 20260505115017 | 13 | 185 | 0.0 | 6.4 | 0.00 | 0.00 | 0.00 | 42 | 1007.6 |
| 20260505114022 | 13 | 193 | 0.0 | 4.8 | 0.00 | 0.00 | 0.00 | 45 | 1007.6 |
| 20260505113013 | 13 | 197 | 3.2 | 8.0 | 0.00 | 0.00 | 0.00 | 48 | 1007.6 |
| 20260505112018 | 13 | 164 | 0.0 | 6.4 | 0.00 | 0.00 | 0.00 | 50 | 1007.5 |
| 20260505111029 | 13 | 196 | 0.0 | 9.7 | 0.00 | 0.00 | 0.00 | 51 | 1007.5 |
| 20260505102038 | 14 | 359 | 1.6 | 9.7 | 0.00 | 0.00 | 0.00 | 52 | 1007.5 |
| 20260505101028 | 14 | 160 | 3.2 | 12.9 | 0.00 | 0.00 | 0.00 | 52 | 1007.5 |
| 20260505100012 | 14 | 159 | 3.2 | 9.7 | 0.00 | 0.00 | 0.00 | 52 | 1007.5 |
| 20260505095044 | 14 | 208 | 0.0 | 6.4 | 0.00 | 0.00 | 0.00 | 52 | 1007.6 |
| 20260505094014 | 14 | 183 | 0.0 | 6.4 | 0.00 | 0.00 | 0.00 | 52 | 1007.6 |
| 20260505093026 | 14 | 190 | 0.0 | 12.9 | 0.00 | 0.00 | 0.00 | 52 | 1007.8 |
| 20260505092029 | 14 | 141 | 1.6 | 9.7 | 0.00 | 0.00 | 0.00 | 52 | 1007.8 |
| 20260505091041 | 14 | 172 | 3.2 | 12.9 | 0.00 | 0.00 | 0.00 | 51 | 1007.8 |
| 20260505090031 | 14 | 177 | 1.6 | 12.9 | 0.00 | 0.00 | 0.00 | 51 | 1007.8 |
| 20260505085015 | 15 | 164 | 0.0 | 11.3 | 0.00 | 0.00 | 0.00 | 51 | 1007.9 |
| 20260505084026 | 15 | 168 | 3.2 | 11.3 | 0.00 | 0.00 | 0.00 | 51 | 1007.8 |
| 20260505083015 | 15 | 214 | 1.6 | 11.3 | 0.00 | 0.00 | 0.00 | 51 | 1007.8 |
| 20260505082026 | 15 | 161 | 6.4 | 17.7 | 0.00 | 0.00 | 0.00 | 51 | 1007.8 |
| 20260505081039 | 14 | 172 | 3.2 | 16.1 | 0.00 | 0.00 | 0.00 | 51 | 1007.9 |
| 20260505080029 | 14 | 167 | 1.6 | 14.5 | 0.00 | 0.00 | 0.00 | 51 | 1008.1 |
| 20260505075042 | 14 | 145 | 3.2 | 9.7 | 0.00 | 0.00 | 0.00 | 51 | 1008.3 |
| 20260505074048 | 14 | 146 | 1.6 | 9.7 | 0.00 | 0.00 | 0.00 | 51 | 1008.4 |
| 20260505073038 | 15 | 142 | 1.6 | 6.4 | 0.00 | 0.00 | 0.00 | 51 | 1008.4 |
| 20260505072021 | 15 | 161 | 6.4 | 27.4 | 0.00 | 0.00 | 0.00 | 50 | 1008.4 |
| 20260505071016 | 15 | 359 | 3.2 | 11.3 | 0.00 | 0.00 | 0.00 | 49 | 1008.6 |
| 20260505070020 | 15 | 156 | 1.6 | 12.9 | 0.00 | 0.00 | 0.00 | 48 | 1008.6 |
| 20260505065031 | 15 | 107 | 6.4 | 17.7 | 0.00 | 0.00 | 0.00 | 49 | 1008.5 |
| 20260505064015 | 15 | 144 | 4.8 | 17.7 | 0.00 | 0.00 | 0.00 | 50 | 1008.5 |
| 20260505063026 | 15 | 172 | 6.4 | 19.3 | 0.00 | 0.00 | 0.00 | 50 | 1008.5 |
| 20260505062039 | 15 | 359 | 6.4 | 16.1 | 0.00 | 0.00 | 0.00 | 50 | 1008.5 |
| 20260505061029 | 15 | 220 | 4.8 | 19.3 | 0.00 | 0.00 | 0.00 | 50 | 1008.4 |
| 20260505060041 | 16 | 204 | 1.6 | 14.5 | 0.00 | 0.00 | 0.00 | 50 | 1008.3 |
| 20260505055025 | 16 | 181 | 1.6 | 6.4 | 0.00 | 0.00 | 0.00 | 48 | 1008.0 |
| 20260505054037 | 16 | 226 | 0.0 | 4.8 | 0.00 | 0.00 | 0.00 | 47 | 1007.7 |
| 20260505053020 | 16 | 187 | 0.0 | 4.8 | 0.00 | 0.00 | 0.00 | 46 | 1007.6 |
| 20260505052030 | 16 | 181 | 0.0 | 4.8 | 0.00 | 0.00 | 0.00 | 46 | 1007.4 |
| 20260505051014 | 16 | 200 | 1.6 | 6.4 | 0.00 | 0.00 | 0.00 | 46 | 1007.4 |
| 20260505041029 | 18 | 166 | 4.8 | 11.3 | 0.00 | 0.00 | 0.00 | 39 | 1006.5 |
| 20260505040040 | 18 | 174 | 1.6 | 9.7 | 0.00 | 0.00 | 0.00 | 38 | 1006.4 |
| 20260505035030 | 18 | 164 | 3.2 | 16.1 | 0.00 | 0.00 | 0.00 | 36 | 1006.4 |
| 20260505034014 | 18 | 211 | 6.4 | 12.9 | 0.00 | 0.00 | 0.00 | 35 | 1006.3 |
| 20260505033025 | 18 | 185 | 0.0 | 0.0 | 0.00 | 0.00 | 0.00 | 34 | 1006.0 |
| 20260505032035 | 18 | 190 | 0.0 | 0.0 | 0.00 | 0.00 | 0.00 | 34 | 1005.8 |
| 20260505031040 | 19 | 189 | 0.0 | 0.0 | 0.00 | 0.00 | 0.00 | 33 | 1005.7 |
| 20260505030031 | 19 | 189 | 0.0 | 0.0 | 0.00 | 0.00 | 0.00 | 32 | 1005.5 |
| 20260505025020 | 20 | 189 | 0.0 | 3.2 | 0.00 | 0.00 | 0.00 | 32 | 1005.4 |
| 20260505024022 | 20 | 201 | 0.0 | 4.8 | 0.00 | 0.00 | 0.00 | 32 | 1005.4 |
| 20260505023014 | 20 | 193 | 0.0 | 4.8 | 0.00 | 0.00 | 0.00 | 31 | 1005.3 |
| 20260505022045 | 20 | 222 | 0.0 | 14.5 | 0.00 | 0.00 | 0.00 | 31 | 1005.2 |
| 20260505021036 | 20 | 226 | 0.0 | 8.0 | 0.00 | 0.00 | 0.00 | 30 | 1005.1 |
| 20260505020020 | 21 | 206 | 3.2 | 14.5 | 0.00 | 0.00 | 0.00 | 29 | 1005.0 |
| 20260505015030 | 21 | 212 | 0.0 | 11.3 | 0.00 | 0.00 | 0.00 | 29 | 1005.0 |
| 20260505014020 | 21 | 218 | 1.6 | 9.7 | 0.00 | 0.00 | 0.00 | 28 | 1005.0 |
| 20260505013024 | 21 | 187 | 4.8 | 14.5 | 0.00 | 0.00 | 0.00 | 28 | 1005.1 |
| 20260505012015 | 21 | 211 | 1.6 | 9.7 | 0.00 | 0.00 | 0.00 | 28 | 1005.1 |
| 20260505011020 | 21 | 185 | 6.4 | 11.3 | 0.00 | 0.00 | 0.00 | 28 | 1005.1 |
| 20260505010032 | 21 | 224 | 4.8 | 16.1 | 0.00 | 0.00 | 0.00 | 29 | 1005.3 |
| 20260505005023 | 21 | 183 | 8.0 | 17.7 | 0.00 | 0.00 | 0.00 | 29 | 1005.4 |
| 20260505004034 | 22 | 168 | 8.0 | 17.7 | 0.00 | 0.00 | 0.00 | 29 | 1005.4 |
| 20260505003018 | 22 | 150 | 1.6 | 20.9 | 0.00 | 0.00 | 0.00 | 28 | 1005.4 |
| 20260505002029 | 22 | 220 | 4.8 | 22.5 | 0.00 | 0.00 | 0.00 | 27 | 1005.6 |
| 20260505001041 | 22 | 237 | 4.8 | 19.3 | 0.00 | 0.00 | 0.00 | 26 | 1005.6 |
| 20260505000051 | 22 | 173 | 1.6 | 17.7 | 0.00 | 0.00 | 0.00 | 25 | 1005.7 |
| 20260504235041 | 23 | 235 | 6.4 | 16.1 | 0.00 | 0.00 | 0.00 | 24 | 1005.7 |
| 20260504234024 | 23 | 359 | 4.8 | 17.7 | 0.00 | 0.00 | 0.00 | 24 | 1005.6 |
| 20260504233016 | 23 | 207 | 4.8 | 19.3 | 0.00 | 0.00 | 0.00 | 24 | 1005.7 |
| 20260504232047 | 22 | 247 | 4.8 | 22.5 | 0.00 | 0.00 | 0.00 | 25 | 1005.8 |
| 20260504231038 | 23 | 218 | 4.8 | 24.1 | 0.00 | 0.00 | 0.00 | 26 | 1005.7 |
| 20260504230022 | 23 | 248 | 8.0 | 17.7 | 0.00 | 0.00 | 0.00 | 26 | 1005.7 |
| 20260504225034 | 23 | 253 | 8.0 | 25.7 | 0.00 | 0.00 | 0.00 | 27 | 1005.7 |
| 20260504224018 | 22 | 230 | 9.7 | 25.7 | 0.00 | 0.00 | 0.00 | 27 | 1005.8 |
| 20260504223013 | 23 | 260 | 11.3 | 24.1 | 0.00 | 0.00 | 0.00 | 27 | 1005.7 |
| 20260504222041 | 25 | 257 | 3.2 | 16.1 | 0.00 | 0.00 | 0.00 | 21 | 1005.7 |
| 20260504221024 | 25 | 283 | 1.6 | 12.9 | 0.00 | 0.00 | 0.00 | 22 | 1005.8 |
| 20260504220019 | 23 | 251 | 1.6 | 12.9 | 0.00 | 0.00 | 0.00 | 22 | 1005.9 |
| 20260504215030 | 24 | 268 | 0.0 | 0.0 | 0.00 | 0.00 | 0.00 | 22 | 1006.0 |
| 20260504214014 | 24 | 359 | 0.0 | 16.1 | 0.00 | 0.00 | 0.00 | 21 | 1006.2 |
| 20260504213046 | 24 | 279 | 3.2 | 12.9 | 0.00 | 0.00 | 0.00 | 20 | 1006.3 |
| 20260504212016 | 24 | 233 | 4.8 | 14.5 | 0.00 | 0.00 | 0.00 | 22 | 1006.5 |
| 20260504211020 | 23 | 248 | 0.0 | 6.4 | 0.00 | 0.00 | 0.00 | 22 | 1006.6 |
| 20260504210100 | 24 | 283 | 0.0 | 12.9 | 0.00 | 0.00 | 0.00 | 21 | 1006.7 |
| 20260504205023 | 24 | 264 | 0.0 | 8.0 | 0.00 | 0.00 | 0.00 | 21 | 1006.8 |
| 20260504204034 | 23 | 4 | 0.0 | 6.4 | 0.00 | 0.00 | 0.00 | 21 | 1006.9 |
| 20260504203019 | 23 | 260 | 3.2 | 12.9 | 0.00 | 0.00 | 0.00 | 20 | 1007.0 |
| 20260504202030 | 23 | 289 | 0.0 | 8.0 | 0.00 | 0.00 | 0.00 | 23 | 1007.1 |
| 20260504201042 | 23 | 269 | 3.2 | 16.1 | 0.00 | 0.00 | 0.00 | 23 | 1007.2 |
| 20260504200025 | 23 | 359 | 0.0 | 12.9 | 0.00 | 0.00 | 0.00 | 24 | 1007.3 |
| 20260504195016 | 23 | 251 | 0.0 | 12.9 | 0.00 | 0.00 | 0.00 | 24 | 1007.4 |
| 20260504194029 | 22 | 258 | 3.2 | 19.3 | 0.00 | 0.00 | 0.00 | 24 | 1007.6 |
| 20260504193101 | 23 | 231 | 6.4 | 11.3 | 0.00 | 0.00 | 0.00 | 24 | 1007.8 |
| 20260504192023 | 22 | 268 | 6.4 | 12.9 | 0.00 | 0.00 | 0.00 | 24 | 1007.9 |
| 20260504191036 | 22 | 195 | 1.6 | 14.5 | 0.00 | 0.00 | 0.00 | 26 | 1007.9 |
| 20260504190020 | 22 | 236 | 6.4 | 12.9 | 0.00 | 0.00 | 0.00 | 26 | 1008.0 |
| 20260504185031 | 22 | 239 | 4.8 | 16.1 | 0.00 | 0.00 | 0.00 | 27 | 1008.1 |
| 20260504184015 | 22 | 359 | 0.0 | 16.1 | 0.00 | 0.00 | 0.00 | 27 | 1008.1 |
| 20260504183027 | 22 | 229 | 0.0 | 3.2 | 0.00 | 0.00 | 0.00 | 28 | 1008.3 |
| 20260504182018 | 22 | 261 | 0.0 | 4.8 | 0.00 | 0.00 | 0.00 | 26 | 1008.4 |
| 20260504181029 | 22 | 359 | 0.0 | 0.0 | 0.00 | 0.00 | 0.00 | 27 | 1008.5 |
| 20260504180013 | 22 | 115 | 0.0 | 4.8 | 0.00 | 0.00 | 0.00 | 28 | 1008.6 |
| 20260504175025 | 22 | 203 | 0.0 | 4.8 | 0.00 | 0.00 | 0.00 | 29 | 1008.8 |
| 20260504174037 | 21 | 237 | 0.0 | 8.0 | 0.00 | 0.00 | 0.00 | 30 | 1008.8 |
| 20260504173021 | 21 | 243 | 0.0 | 4.8 | 0.00 | 0.00 | 0.00 | 31 | 1008.9 |
| 20260504172032 | 21 | 359 | 0.0 | 8.0 | 0.00 | 0.00 | 0.00 | 31 | 1008.9 |
| 20260504171015 | 21 | 261 | 1.6 | 6.4 | 0.00 | 0.00 | 0.00 | 32 | 1009.0 |